sensor_id;sensor_type;location;lat;lon;timestamp;temperature;humidity
29341;DHT22;16337;59.536;13.468;2023-04-25T00:01:29;4.90;99.90
29341;DHT22;16337;59.536;13.468;2023-04-25T00:03:55;4.80;99.90
29341;DHT22;16337;59.536;13.468;2023-04-25T00:06:21;4.80;99.90
29341;DHT22;16337;59.536;13.468;2023-04-25T00:08:47;4.80;99.90
29341;DHT22;16337;59.536;13.468;2023-04-25T00:11:14;4.80;99.90
29341;DHT22;16337;59.536;13.468;2023-04-25T00:13:39;4.80;99.90
29341;DHT22;16337;59.536;13.468;2023-04-25T00:16:07;4.80;99.90
29341;DHT22;16337;59.536;13.468;2023-04-25T00:18:33;4.70;99.90
29341;DHT22;16337;59.536;13.468;2023-04-25T00:20:59;4.70;99.90
29341;DHT22;16337;59.536;13.468;2023-04-25T00:23:25;4.70;99.90
29341;DHT22;16337;59.536;13.468;2023-04-25T00:25:51;4.70;99.90
29341;DHT22;16337;59.536;13.468;2023-04-25T00:28:17;4.60;99.90
29341;DHT22;16337;59.536;13.468;2023-04-25T00:30:43;4.60;99.90
29341;DHT22;16337;59.536;13.468;2023-04-25T00:33:09;4.50;99.90
29341;DHT22;16337;59.536;13.468;2023-04-25T00:35:35;4.50;99.90
29341;DHT22;16337;59.536;13.468;2023-04-25T00:38:01;4.50;99.90
29341;DHT22;16337;59.536;13.468;2023-04-25T00:40:27;4.40;99.90
29341;DHT22;16337;59.536;13.468;2023-04-25T00:42:54;4.40;99.90
29341;DHT22;16337;59.536;13.468;2023-04-25T00:45:21;4.40;99.90
29341;DHT22;16337;59.536;13.468;2023-04-25T00:47:47;4.40;99.90
29341;DHT22;16337;59.536;13.468;2023-04-25T00:50:15;4.40;99.90
29341;DHT22;16337;59.536;13.468;2023-04-25T00:52:44;4.30;99.90
29341;DHT22;16337;59.536;13.468;2023-04-25T00:55:11;4.40;99.90
29341;DHT22;16337;59.536;13.468;2023-04-25T00:57:38;4.30;99.90
29341;DHT22;16337;59.536;13.468;2023-04-25T01:00:05;4.30;99.90
29341;DHT22;16337;59.536;13.468;2023-04-25T01:02:33;4.30;99.90
29341;DHT22;16337;59.536;13.468;2023-04-25T01:05:12;4.30;99.90
29341;DHT22;16337;59.536;13.468;2023-04-25T01:07:40;4.30;99.90
29341;DHT22;16337;59.536;13.468;2023-04-25T01:10:40;4.30;99.90
29341;DHT22;16337;59.536;13.468;2023-04-25T01:13:42;4.20;99.90
29341;DHT22;16337;59.536;13.468;2023-04-25T01:19:24;4.20;99.90
29341;DHT22;16337;59.536;13.468;2023-04-25T01:22:24;4.20;99.90
29341;DHT22;16337;59.536;13.468;2023-04-25T01:25:24;4.10;99.90
29341;DHT22;16337;59.536;13.468;2023-04-25T01:27:50;4.00;99.90
29341;DHT22;16337;59.536;13.468;2023-04-25T01:30:19;4.00;99.90
29341;DHT22;16337;59.536;13.468;2023-04-25T01:32:44;3.90;99.90
29341;DHT22;16337;59.536;13.468;2023-04-25T01:35:11;3.90;99.90
29341;DHT22;16337;59.536;13.468;2023-04-25T01:37:41;3.80;99.90
29341;DHT22;16337;59.536;13.468;2023-04-25T01:40:09;3.80;99.90
29341;DHT22;16337;59.536;13.468;2023-04-25T01:42:40;3.80;99.90
29341;DHT22;16337;59.536;13.468;2023-04-25T01:45:10;3.70;99.90
29341;DHT22;16337;59.536;13.468;2023-04-25T01:47:39;3.70;99.90
29341;DHT22;16337;59.536;13.468;2023-04-25T01:50:09;3.70;99.90
29341;DHT22;16337;59.536;13.468;2023-04-25T01:52:38;3.70;99.90
29341;DHT22;16337;59.536;13.468;2023-04-25T01:55:05;3.70;99.90
29341;DHT22;16337;59.536;13.468;2023-04-25T01:57:36;3.60;99.90
29341;DHT22;16337;59.536;13.468;2023-04-25T02:00:14;3.60;99.90
29341;DHT22;16337;59.536;13.468;2023-04-25T02:02:43;3.60;99.90
29341;DHT22;16337;59.536;13.468;2023-04-25T02:05:09;3.60;99.90
29341;DHT22;16337;59.536;13.468;2023-04-25T02:08:02;3.60;99.90
29341;DHT22;16337;59.536;13.468;2023-04-25T02:10:28;3.60;99.90
29341;DHT22;16337;59.536;13.468;2023-04-25T02:13:02;3.60;99.90
29341;DHT22;16337;59.536;13.468;2023-04-25T02:15:29;3.60;99.90
29341;DHT22;16337;59.536;13.468;2023-04-25T02:18:00;3.60;99.90
29341;DHT22;16337;59.536;13.468;2023-04-25T02:20:33;3.50;99.90
29341;DHT22;16337;59.536;13.468;2023-04-25T02:23:03;3.50;99.90
29341;DHT22;16337;59.536;13.468;2023-04-25T02:25:36;3.50;99.90
29341;DHT22;16337;59.536;13.468;2023-04-25T02:28:01;3.50;99.90
29341;DHT22;16337;59.536;13.468;2023-04-25T02:30:28;3.50;99.90
29341;DHT22;16337;59.536;13.468;2023-04-25T02:32:53;3.50;99.90
29341;DHT22;16337;59.536;13.468;2023-04-25T02:35:19;3.50;99.90
29341;DHT22;16337;59.536;13.468;2023-04-25T02:37:45;3.50;99.90
29341;DHT22;16337;59.536;13.468;2023-04-25T02:40:13;3.50;99.90
29341;DHT22;16337;59.536;13.468;2023-04-25T02:42:39;3.40;99.90
29341;DHT22;16337;59.536;13.468;2023-04-25T02:45:05;3.40;99.90
29341;DHT22;16337;59.536;13.468;2023-04-25T02:47:31;3.40;99.90
29341;DHT22;16337;59.536;13.468;2023-04-25T02:49:57;3.40;99.90
29341;DHT22;16337;59.536;13.468;2023-04-25T02:52:22;3.40;99.90
29341;DHT22;16337;59.536;13.468;2023-04-25T02:54:54;3.30;99.90
29341;DHT22;16337;59.536;13.468;2023-04-25T02:57:19;3.30;99.90
29341;DHT22;16337;59.536;13.468;2023-04-25T02:59:45;3.30;99.90
29341;DHT22;16337;59.536;13.468;2023-04-25T03:02:11;3.30;99.90
29341;DHT22;16337;59.536;13.468;2023-04-25T03:04:37;3.30;99.90
29341;DHT22;16337;59.536;13.468;2023-04-25T03:07:03;3.30;99.90
29341;DHT22;16337;59.536;13.468;2023-04-25T03:09:58;3.30;99.90
29341;DHT22;16337;59.536;13.468;2023-04-25T03:12:54;3.20;99.90
29341;DHT22;16337;59.536;13.468;2023-04-25T03:15:29;3.30;99.90
29341;DHT22;16337;59.536;13.468;2023-04-25T03:18:04;3.30;99.90
29341;DHT22;16337;59.536;13.468;2023-04-25T03:20:30;3.20;99.90
29341;DHT22;16337;59.536;13.468;2023-04-25T03:22:56;3.20;99.90
29341;DHT22;16337;59.536;13.468;2023-04-25T03:25:22;3.20;99.90
29341;DHT22;16337;59.536;13.468;2023-04-25T03:27:47;3.20;99.90
29341;DHT22;16337;59.536;13.468;2023-04-25T03:30:13;3.20;99.90
29341;DHT22;16337;59.536;13.468;2023-04-25T03:32:39;3.20;99.90
29341;DHT22;16337;59.536;13.468;2023-04-25T03:35:05;3.20;99.90
29341;DHT22;16337;59.536;13.468;2023-04-25T03:37:31;3.20;99.90
29341;DHT22;16337;59.536;13.468;2023-04-25T03:40:17;3.20;99.90
29341;DHT22;16337;59.536;13.468;2023-04-25T03:42:42;3.20;99.90
29341;DHT22;16337;59.536;13.468;2023-04-25T03:45:08;3.20;99.90
29341;DHT22;16337;59.536;13.468;2023-04-25T03:47:37;3.20;99.90
29341;DHT22;16337;59.536;13.468;2023-04-25T03:50:03;3.20;99.90
29341;DHT22;16337;59.536;13.468;2023-04-25T03:52:29;3.10;99.90
29341;DHT22;16337;59.536;13.468;2023-04-25T03:54:55;3.20;99.90
29341;DHT22;16337;59.536;13.468;2023-04-25T03:57:20;3.20;99.90
29341;DHT22;16337;59.536;13.468;2023-04-25T03:59:46;3.20;99.90
29341;DHT22;16337;59.536;13.468;2023-04-25T04:02:12;3.20;99.90
29341;DHT22;16337;59.536;13.468;2023-04-25T04:04:38;3.20;99.90
29341;DHT22;16337;59.536;13.468;2023-04-25T04:07:04;3.20;99.90
29341;DHT22;16337;59.536;13.468;2023-04-25T04:09:30;3.20;99.90
29341;DHT22;16337;59.536;13.468;2023-04-25T04:11:55;3.20;99.90
29341;DHT22;16337;59.536;13.468;2023-04-25T04:14:21;3.20;99.90
29341;DHT22;16337;59.536;13.468;2023-04-25T04:16:47;3.20;99.90
29341;DHT22;16337;59.536;13.468;2023-04-25T04:19:25;3.20;99.90
29341;DHT22;16337;59.536;13.468;2023-04-25T04:21:57;3.10;99.90
29341;DHT22;16337;59.536;13.468;2023-04-25T04:24:23;3.20;99.90
29341;DHT22;16337;59.536;13.468;2023-04-25T04:26:49;3.10;99.90
29341;DHT22;16337;59.536;13.468;2023-04-25T04:29:19;3.10;99.90
29341;DHT22;16337;59.536;13.468;2023-04-25T04:31:59;3.10;99.90
29341;DHT22;16337;59.536;13.468;2023-04-25T04:34:30;3.20;99.90
29341;DHT22;16337;59.536;13.468;2023-04-25T04:39:57;3.20;99.90
29341;DHT22;16337;59.536;13.468;2023-04-25T04:42:30;3.20;99.90
29341;DHT22;16337;59.536;13.468;2023-04-25T04:45:26;3.20;99.90
29341;DHT22;16337;59.536;13.468;2023-04-25T04:47:53;3.20;99.90
29341;DHT22;16337;59.536;13.468;2023-04-25T04:50:21;3.30;99.90
29341;DHT22;16337;59.536;13.468;2023-04-25T04:52:46;3.20;99.90
29341;DHT22;16337;59.536;13.468;2023-04-25T04:55:15;3.20;99.90
29341;DHT22;16337;59.536;13.468;2023-04-25T04:57:40;3.20;99.90
29341;DHT22;16337;59.536;13.468;2023-04-25T05:00:07;3.20;99.90
29341;DHT22;16337;59.536;13.468;2023-04-25T05:02:37;3.30;99.90
29341;DHT22;16337;59.536;13.468;2023-04-25T05:05:04;3.30;99.90
29341;DHT22;16337;59.536;13.468;2023-04-25T05:07:45;3.30;99.90
29341;DHT22;16337;59.536;13.468;2023-04-25T05:10:29;3.30;99.90
29341;DHT22;16337;59.536;13.468;2023-04-25T05:13:13;3.30;99.90
29341;DHT22;16337;59.536;13.468;2023-04-25T05:16:06;3.30;99.90
29341;DHT22;16337;59.536;13.468;2023-04-25T05:18:32;3.30;99.90
29341;DHT22;16337;59.536;13.468;2023-04-25T05:20:58;3.40;99.90
29341;DHT22;16337;59.536;13.468;2023-04-25T05:23:27;3.40;99.90
29341;DHT22;16337;59.536;13.468;2023-04-25T05:25:53;3.40;99.90
29341;DHT22;16337;59.536;13.468;2023-04-25T05:28:19;3.50;99.90
29341;DHT22;16337;59.536;13.468;2023-04-25T05:30:46;3.50;99.90
29341;DHT22;16337;59.536;13.468;2023-04-25T05:33:15;3.40;99.90
29341;DHT22;16337;59.536;13.468;2023-04-25T05:35:41;3.40;99.90
29341;DHT22;16337;59.536;13.468;2023-04-25T05:38:07;3.50;99.90
29341;DHT22;16337;59.536;13.468;2023-04-25T05:40:32;3.50;99.90
29341;DHT22;16337;59.536;13.468;2023-04-25T05:42:58;3.50;99.90
29341;DHT22;16337;59.536;13.468;2023-04-25T05:45:24;3.50;99.90
29341;DHT22;16337;59.536;13.468;2023-04-25T05:47:52;3.50;99.90
29341;DHT22;16337;59.536;13.468;2023-04-25T05:50:18;3.50;99.90
29341;DHT22;16337;59.536;13.468;2023-04-25T05:52:44;3.40;99.90
29341;DHT22;16337;59.536;13.468;2023-04-25T05:55:10;3.40;99.90
29341;DHT22;16337;59.536;13.468;2023-04-25T05:57:35;3.40;99.90
29341;DHT22;16337;59.536;13.468;2023-04-25T06:00:01;3.50;99.90
29341;DHT22;16337;59.536;13.468;2023-04-25T06:02:28;3.50;99.90
29341;DHT22;16337;59.536;13.468;2023-04-25T06:04:54;3.50;99.90
29341;DHT22;16337;59.536;13.468;2023-04-25T06:07:20;3.50;99.90
29341;DHT22;16337;59.536;13.468;2023-04-25T06:09:46;3.50;99.90
29341;DHT22;16337;59.536;13.468;2023-04-25T06:12:11;3.60;99.90
29341;DHT22;16337;59.536;13.468;2023-04-25T06:14:40;3.60;99.90
29341;DHT22;16337;59.536;13.468;2023-04-25T06:17:06;3.70;99.90
29341;DHT22;16337;59.536;13.468;2023-04-25T06:19:34;3.60;99.90
29341;DHT22;16337;59.536;13.468;2023-04-25T06:22:01;3.70;99.90
29341;DHT22;16337;59.536;13.468;2023-04-25T06:24:27;3.60;99.90
29341;DHT22;16337;59.536;13.468;2023-04-25T06:26:53;3.70;99.90
29341;DHT22;16337;59.536;13.468;2023-04-25T06:29:21;3.50;99.90
29341;DHT22;16337;59.536;13.468;2023-04-25T06:31:50;3.60;99.90
29341;DHT22;16337;59.536;13.468;2023-04-25T06:34:16;3.60;99.90
29341;DHT22;16337;59.536;13.468;2023-04-25T06:36:44;3.60;99.90
29341;DHT22;16337;59.536;13.468;2023-04-25T06:39:10;3.60;99.90
29341;DHT22;16337;59.536;13.468;2023-04-25T06:41:36;3.60;99.90
29341;DHT22;16337;59.536;13.468;2023-04-25T06:44:02;3.70;99.90
29341;DHT22;16337;59.536;13.468;2023-04-25T06:46:28;3.70;99.90
29341;DHT22;16337;59.536;13.468;2023-04-25T06:48:54;3.70;99.90
29341;DHT22;16337;59.536;13.468;2023-04-25T06:51:20;3.80;99.90
29341;DHT22;16337;59.536;13.468;2023-04-25T06:53:46;3.80;99.90
29341;DHT22;16337;59.536;13.468;2023-04-25T06:56:11;3.80;99.90
29341;DHT22;16337;59.536;13.468;2023-04-25T06:58:40;3.90;99.90
29341;DHT22;16337;59.536;13.468;2023-04-25T07:01:14;3.90;99.90
29341;DHT22;16337;59.536;13.468;2023-04-25T07:03:41;3.90;99.90
29341;DHT22;16337;59.536;13.468;2023-04-25T07:09:14;4.00;99.90
29341;DHT22;16337;59.536;13.468;2023-04-25T07:11:52;4.00;99.90
29341;DHT22;16337;59.536;13.468;2023-04-25T07:14:21;4.00;99.90
29341;DHT22;16337;59.536;13.468;2023-04-25T07:16:47;4.00;99.90
29341;DHT22;16337;59.536;13.468;2023-04-25T07:19:23;4.00;99.90
29341;DHT22;16337;59.536;13.468;2023-04-25T07:21:52;4.10;99.90
29341;DHT22;16337;59.536;13.468;2023-04-25T07:24:18;4.10;99.90
29341;DHT22;16337;59.536;13.468;2023-04-25T07:27:10;4.00;99.90
29341;DHT22;16337;59.536;13.468;2023-04-25T07:29:51;4.00;99.90
29341;DHT22;16337;59.536;13.468;2023-04-25T07:32:23;3.90;99.90
29341;DHT22;16337;59.536;13.468;2023-04-25T07:35:46;3.90;99.90
29341;DHT22;16337;59.536;13.468;2023-04-25T07:38:12;4.00;99.90
29341;DHT22;16337;59.536;13.468;2023-04-25T07:48:19;4.00;99.90
29341;DHT22;16337;59.536;13.468;2023-04-25T07:50:48;4.00;99.90
29341;DHT22;16337;59.536;13.468;2023-04-25T07:53:17;4.00;99.90
29341;DHT22;16337;59.536;13.468;2023-04-25T07:55:43;4.00;99.90
29341;DHT22;16337;59.536;13.468;2023-04-25T07:58:10;4.00;99.90
29341;DHT22;16337;59.536;13.468;2023-04-25T08:00:36;4.10;99.90
29341;DHT22;16337;59.536;13.468;2023-04-25T08:03:21;4.10;99.90
29341;DHT22;16337;59.536;13.468;2023-04-25T08:06:02;4.20;99.90
29341;DHT22;16337;59.536;13.468;2023-04-25T08:08:43;4.30;99.90
29341;DHT22;16337;59.536;13.468;2023-04-25T08:11:12;4.30;99.90
29341;DHT22;16337;59.536;13.468;2023-04-25T08:13:38;4.30;99.90
29341;DHT22;16337;59.536;13.468;2023-04-25T08:16:04;4.30;99.90
29341;DHT22;16337;59.536;13.468;2023-04-25T08:18:29;4.40;99.90
29341;DHT22;16337;59.536;13.468;2023-04-25T08:20:56;4.50;99.90
29341;DHT22;16337;59.536;13.468;2023-04-25T08:23:31;4.60;99.90
29341;DHT22;16337;59.536;13.468;2023-04-25T08:26:05;4.60;99.90
29341;DHT22;16337;59.536;13.468;2023-04-25T08:28:31;4.60;99.90
29341;DHT22;16337;59.536;13.468;2023-04-25T08:31:30;4.60;99.90
29341;DHT22;16337;59.536;13.468;2023-04-25T08:33:56;4.70;99.90
29341;DHT22;16337;59.536;13.468;2023-04-25T08:36:21;4.60;99.90
29341;DHT22;16337;59.536;13.468;2023-04-25T08:38:50;4.50;99.90
29341;DHT22;16337;59.536;13.468;2023-04-25T08:41:16;4.50;99.90
29341;DHT22;16337;59.536;13.468;2023-04-25T08:43:43;4.60;99.90
29341;DHT22;16337;59.536;13.468;2023-04-25T08:46:11;4.70;99.90
29341;DHT22;16337;59.536;13.468;2023-04-25T08:48:40;4.80;99.90
29341;DHT22;16337;59.536;13.468;2023-04-25T08:51:07;4.80;99.90
29341;DHT22;16337;59.536;13.468;2023-04-25T08:53:39;4.80;99.90
29341;DHT22;16337;59.536;13.468;2023-04-25T08:56:17;4.90;99.90
29341;DHT22;16337;59.536;13.468;2023-04-25T08:58:52;4.80;99.90
29341;DHT22;16337;59.536;13.468;2023-04-25T09:02:01;4.80;99.90
29341;DHT22;16337;59.536;13.468;2023-04-25T09:04:56;4.70;99.90
29341;DHT22;16337;59.536;13.468;2023-04-25T09:07:27;4.70;99.90
29341;DHT22;16337;59.536;13.468;2023-04-25T09:10:02;4.70;99.90
29341;DHT22;16337;59.536;13.468;2023-04-25T09:16:01;4.80;99.90
29341;DHT22;16337;59.536;13.468;2023-04-25T09:18:34;4.80;99.90
29341;DHT22;16337;59.536;13.468;2023-04-25T09:21:14;4.80;99.90
29341;DHT22;16337;59.536;13.468;2023-04-25T09:24:03;4.80;99.90
29341;DHT22;16337;59.536;13.468;2023-04-25T09:26:29;4.90;99.90
29341;DHT22;16337;59.536;13.468;2023-04-25T09:29:37;4.80;99.90
29341;DHT22;16337;59.536;13.468;2023-04-25T09:32:24;4.90;99.90
29341;DHT22;16337;59.536;13.468;2023-04-25T09:35:06;4.90;99.90
29341;DHT22;16337;59.536;13.468;2023-04-25T09:37:33;5.00;99.90
29341;DHT22;16337;59.536;13.468;2023-04-25T09:40:03;4.80;99.90
29341;DHT22;16337;59.536;13.468;2023-04-25T09:42:31;4.90;99.90
29341;DHT22;16337;59.536;13.468;2023-04-25T09:44:58;5.00;99.90
29341;DHT22;16337;59.536;13.468;2023-04-25T09:47:27;5.10;99.90
29341;DHT22;16337;59.536;13.468;2023-04-25T09:49:54;5.10;99.90
29341;DHT22;16337;59.536;13.468;2023-04-25T09:53:02;5.10;99.90
29341;DHT22;16337;59.536;13.468;2023-04-25T09:55:27;5.10;99.90
29341;DHT22;16337;59.536;13.468;2023-04-25T09:58:01;5.20;99.90
29341;DHT22;16337;59.536;13.468;2023-04-25T10:07:11;5.50;99.90
29341;DHT22;16337;59.536;13.468;2023-04-25T10:09:38;5.50;99.90
29341;DHT22;16337;59.536;13.468;2023-04-25T10:12:06;5.60;99.90
29341;DHT22;16337;59.536;13.468;2023-04-25T10:14:35;5.70;99.90
29341;DHT22;16337;59.536;13.468;2023-04-25T10:17:01;5.70;99.90
29341;DHT22;16337;59.536;13.468;2023-04-25T10:19:28;5.60;99.90
29341;DHT22;16337;59.536;13.468;2023-04-25T10:24:25;5.60;99.90
29341;DHT22;16337;59.536;13.468;2023-04-25T10:26:51;5.50;99.90
29341;DHT22;16337;59.536;13.468;2023-04-25T10:29:25;5.40;99.90
29341;DHT22;16337;59.536;13.468;2023-04-25T10:31:51;5.50;99.90
29341;DHT22;16337;59.536;13.468;2023-04-25T10:34:17;5.60;99.90
29341;DHT22;16337;59.536;13.468;2023-04-25T10:36:44;5.70;99.90
29341;DHT22;16337;59.536;13.468;2023-04-25T10:39:24;5.60;99.90
29341;DHT22;16337;59.536;13.468;2023-04-25T10:41:57;5.50;99.90
29341;DHT22;16337;59.536;13.468;2023-04-25T10:44:29;5.60;99.90
29341;DHT22;16337;59.536;13.468;2023-04-25T10:46:57;5.60;99.90
29341;DHT22;16337;59.536;13.468;2023-04-25T10:52:18;5.80;99.90
29341;DHT22;16337;59.536;13.468;2023-04-25T10:57:29;5.90;99.90
29341;DHT22;16337;59.536;13.468;2023-04-25T11:00:14;6.00;99.90
29341;DHT22;16337;59.536;13.468;2023-04-25T11:02:59;6.00;99.90
29341;DHT22;16337;59.536;13.468;2023-04-25T11:05:46;6.00;99.90
29341;DHT22;16337;59.536;13.468;2023-04-25T11:15:37;6.20;99.90
29341;DHT22;16337;59.536;13.468;2023-04-25T11:21:06;6.30;99.90
29341;DHT22;16337;59.536;13.468;2023-04-25T11:23:32;6.30;99.90
29341;DHT22;16337;59.536;13.468;2023-04-25T11:25:58;6.40;99.90
29341;DHT22;16337;59.536;13.468;2023-04-25T11:28:26;6.40;99.90
29341;DHT22;16337;59.536;13.468;2023-04-25T11:30:52;6.40;99.90
29341;DHT22;16337;59.536;13.468;2023-04-25T11:33:23;6.50;99.90
29341;DHT22;16337;59.536;13.468;2023-04-25T11:35:49;6.50;99.90
29341;DHT22;16337;59.536;13.468;2023-04-25T11:38:15;6.40;99.90
29341;DHT22;16337;59.536;13.468;2023-04-25T11:40:41;6.30;99.90
29341;DHT22;16337;59.536;13.468;2023-04-25T11:43:09;6.30;99.90
29341;DHT22;16337;59.536;13.468;2023-04-25T11:45:49;6.30;99.90
29341;DHT22;16337;59.536;13.468;2023-04-25T11:48:15;6.20;99.90
29341;DHT22;16337;59.536;13.468;2023-04-25T11:50:41;6.30;99.90
29341;DHT22;16337;59.536;13.468;2023-04-25T11:53:36;6.30;99.90
29341;DHT22;16337;59.536;13.468;2023-04-25T11:56:09;6.30;99.90
29341;DHT22;16337;59.536;13.468;2023-04-25T11:58:57;6.30;99.90
29341;DHT22;16337;59.536;13.468;2023-04-25T12:01:38;6.40;99.90
29341;DHT22;16337;59.536;13.468;2023-04-25T12:04:38;6.50;99.90
29341;DHT22;16337;59.536;13.468;2023-04-25T12:07:09;6.50;99.90
29341;DHT22;16337;59.536;13.468;2023-04-25T12:09:41;6.50;99.90
29341;DHT22;16337;59.536;13.468;2023-04-25T12:12:09;6.40;99.90
29341;DHT22;16337;59.536;13.468;2023-04-25T12:14:45;6.40;99.90
29341;DHT22;16337;59.536;13.468;2023-04-25T12:17:16;6.50;99.90
29341;DHT22;16337;59.536;13.468;2023-04-25T12:19:42;6.60;99.90
29341;DHT22;16337;59.536;13.468;2023-04-25T12:22:20;6.80;99.90
29341;DHT22;16337;59.536;13.468;2023-04-25T12:24:46;6.80;99.90
29341;DHT22;16337;59.536;13.468;2023-04-25T12:27:15;6.70;99.90
29341;DHT22;16337;59.536;13.468;2023-04-25T12:30:00;6.70;99.90
29341;DHT22;16337;59.536;13.468;2023-04-25T12:33:15;6.60;99.90
29341;DHT22;16337;59.536;13.468;2023-04-25T12:36:16;6.60;99.90
29341;DHT22;16337;59.536;13.468;2023-04-25T12:38:44;6.70;99.90
29341;DHT22;16337;59.536;13.468;2023-04-25T12:41:13;6.70;99.90
29341;DHT22;16337;59.536;13.468;2023-04-25T12:43:53;6.80;99.90
29341;DHT22;16337;59.536;13.468;2023-04-25T12:46:51;6.90;99.90
29341;DHT22;16337;59.536;13.468;2023-04-25T12:49:25;6.90;99.90
29341;DHT22;16337;59.536;13.468;2023-04-25T12:51:51;6.80;99.90
29341;DHT22;16337;59.536;13.468;2023-04-25T12:54:20;6.80;99.90
29341;DHT22;16337;59.536;13.468;2023-04-25T12:56:46;6.90;99.90
29341;DHT22;16337;59.536;13.468;2023-04-25T12:59:12;7.00;99.90
29341;DHT22;16337;59.536;13.468;2023-04-25T13:01:38;7.00;99.90
29341;DHT22;16337;59.536;13.468;2023-04-25T13:04:04;6.90;99.90
29341;DHT22;16337;59.536;13.468;2023-04-25T13:06:30;7.00;99.90
29341;DHT22;16337;59.536;13.468;2023-04-25T13:08:56;7.00;99.90
29341;DHT22;16337;59.536;13.468;2023-04-25T13:11:22;7.10;99.90
29341;DHT22;16337;59.536;13.468;2023-04-25T13:13:47;7.10;99.90
29341;DHT22;16337;59.536;13.468;2023-04-25T13:16:13;7.10;99.90
29341;DHT22;16337;59.536;13.468;2023-04-25T13:18:39;7.20;99.90
29341;DHT22;16337;59.536;13.468;2023-04-25T13:21:24;7.30;99.90
29341;DHT22;16337;59.536;13.468;2023-04-25T13:23:49;7.40;99.90
29341;DHT22;16337;59.536;13.468;2023-04-25T13:26:15;7.40;99.90
29341;DHT22;16337;59.536;13.468;2023-04-25T13:28:41;7.40;99.90
29341;DHT22;16337;59.536;13.468;2023-04-25T13:31:07;7.40;99.90
29341;DHT22;16337;59.536;13.468;2023-04-25T13:33:42;7.40;99.90
29341;DHT22;16337;59.536;13.468;2023-04-25T13:36:08;7.30;99.90
29341;DHT22;16337;59.536;13.468;2023-04-25T13:38:34;7.30;99.90
29341;DHT22;16337;59.536;13.468;2023-04-25T13:41:00;7.30;99.90
29341;DHT22;16337;59.536;13.468;2023-04-25T13:43:29;7.40;99.90
29341;DHT22;16337;59.536;13.468;2023-04-25T13:46:20;7.30;99.90
29341;DHT22;16337;59.536;13.468;2023-04-25T13:49:06;7.40;99.90
29341;DHT22;16337;59.536;13.468;2023-04-25T13:51:35;7.40;99.90
29341;DHT22;16337;59.536;13.468;2023-04-25T13:54:35;7.50;99.90
29341;DHT22;16337;59.536;13.468;2023-04-25T13:57:34;7.50;99.90
29341;DHT22;16337;59.536;13.468;2023-04-25T14:06:51;7.30;99.90
29341;DHT22;16337;59.536;13.468;2023-04-25T14:09:18;7.30;99.90
29341;DHT22;16337;59.536;13.468;2023-04-25T14:12:20;7.20;99.90
29341;DHT22;16337;59.536;13.468;2023-04-25T14:15:16;7.20;99.90
29341;DHT22;16337;59.536;13.468;2023-04-25T14:18:19;7.20;99.90
29341;DHT22;16337;59.536;13.468;2023-04-25T14:20:50;7.30;99.90
29341;DHT22;16337;59.536;13.468;2023-04-25T14:27:09;7.30;99.90
29341;DHT22;16337;59.536;13.468;2023-04-25T14:29:40;7.30;99.90
29341;DHT22;16337;59.536;13.468;2023-04-25T14:35:13;7.30;99.90
29341;DHT22;16337;59.536;13.468;2023-04-25T14:37:59;7.30;99.90
29341;DHT22;16337;59.536;13.468;2023-04-25T14:44:11;7.30;99.90
29341;DHT22;16337;59.536;13.468;2023-04-25T14:46:40;7.40;99.90
29341;DHT22;16337;59.536;13.468;2023-04-25T14:49:11;7.40;99.90
29341;DHT22;16337;59.536;13.468;2023-04-25T14:55:25;7.50;99.90
29341;DHT22;16337;59.536;13.468;2023-04-25T14:57:53;7.50;99.90
29341;DHT22;16337;59.536;13.468;2023-04-25T15:00:22;7.50;99.90
29341;DHT22;16337;59.536;13.468;2023-04-25T15:06:08;7.40;99.90
29341;DHT22;16337;59.536;13.468;2023-04-25T15:16:25;7.30;99.90
29341;DHT22;16337;59.536;13.468;2023-04-25T15:22:23;7.30;99.90
29341;DHT22;16337;59.536;13.468;2023-04-25T15:24:56;7.30;99.90
29341;DHT22;16337;59.536;13.468;2023-04-25T15:31:30;7.10;99.90
29341;DHT22;16337;59.536;13.468;2023-04-25T15:37:36;7.00;99.90
29341;DHT22;16337;59.536;13.468;2023-04-25T15:40:30;6.80;99.90
29341;DHT22;16337;59.536;13.468;2023-04-25T15:43:02;6.80;99.90
29341;DHT22;16337;59.536;13.468;2023-04-25T15:45:44;6.80;99.90
29341;DHT22;16337;59.536;13.468;2023-04-25T15:48:16;6.80;99.90
29341;DHT22;16337;59.536;13.468;2023-04-25T15:50:41;6.80;99.90
29341;DHT22;16337;59.536;13.468;2023-04-25T15:53:22;6.70;99.90
29341;DHT22;16337;59.536;13.468;2023-04-25T15:55:59;6.60;99.90
29341;DHT22;16337;59.536;13.468;2023-04-25T15:58:55;6.60;99.90
29341;DHT22;16337;59.536;13.468;2023-04-25T16:01:32;6.60;99.90
29341;DHT22;16337;59.536;13.468;2023-04-25T16:04:14;6.60;99.90
29341;DHT22;16337;59.536;13.468;2023-04-25T16:06:41;6.60;99.90
29341;DHT22;16337;59.536;13.468;2023-04-25T16:09:10;6.60;99.90
29341;DHT22;16337;59.536;13.468;2023-04-25T16:11:36;6.60;99.90
29341;DHT22;16337;59.536;13.468;2023-04-25T16:14:22;6.50;99.90
29341;DHT22;16337;59.536;13.468;2023-04-25T16:16:49;6.50;99.90
29341;DHT22;16337;59.536;13.468;2023-04-25T16:19:18;6.50;99.90
29341;DHT22;16337;59.536;13.468;2023-04-25T16:21:44;6.50;99.90
29341;DHT22;16337;59.536;13.468;2023-04-25T16:24:26;6.50;99.90
29341;DHT22;16337;59.536;13.468;2023-04-25T16:26:54;6.50;99.90
29341;DHT22;16337;59.536;13.468;2023-04-25T16:29:23;6.50;99.90
29341;DHT22;16337;59.536;13.468;2023-04-25T16:32:12;6.40;99.90
29341;DHT22;16337;59.536;13.468;2023-04-25T16:35:28;6.30;99.90
29341;DHT22;16337;59.536;13.468;2023-04-25T16:37:57;6.30;99.90
29341;DHT22;16337;59.536;13.468;2023-04-25T16:43:49;6.30;99.90
29341;DHT22;16337;59.536;13.468;2023-04-25T16:46:14;6.40;99.90
29341;DHT22;16337;59.536;13.468;2023-04-25T16:48:51;6.40;99.90
29341;DHT22;16337;59.536;13.468;2023-04-25T16:51:34;6.40;99.90
29341;DHT22;16337;59.536;13.468;2023-04-25T16:54:13;6.40;99.90
29341;DHT22;16337;59.536;13.468;2023-04-25T16:56:51;6.30;99.90
29341;DHT22;16337;59.536;13.468;2023-04-25T16:59:17;6.30;99.90
29341;DHT22;16337;59.536;13.468;2023-04-25T17:01:43;6.30;99.90
29341;DHT22;16337;59.536;13.468;2023-04-25T17:04:12;6.20;99.90
29341;DHT22;16337;59.536;13.468;2023-04-25T17:06:40;6.30;99.90
29341;DHT22;16337;59.536;13.468;2023-04-25T17:09:09;6.20;99.90
29341;DHT22;16337;59.536;13.468;2023-04-25T17:11:37;6.20;99.90
29341;DHT22;16337;59.536;13.468;2023-04-25T17:14:03;6.20;99.90
29341;DHT22;16337;59.536;13.468;2023-04-25T17:16:39;6.20;99.90
29341;DHT22;16337;59.536;13.468;2023-04-25T17:19:31;6.20;99.90
29341;DHT22;16337;59.536;13.468;2023-04-25T17:22:00;6.20;99.90
29341;DHT22;16337;59.536;13.468;2023-04-25T17:24:48;6.20;99.90
29341;DHT22;16337;59.536;13.468;2023-04-25T17:27:45;6.20;99.90
29341;DHT22;16337;59.536;13.468;2023-04-25T17:30:32;6.20;99.90
29341;DHT22;16337;59.536;13.468;2023-04-25T17:33:07;6.20;99.90